sensor_id;sensor_type;location;lat;lon;timestamp;temperature;humidity
48206;DHT22;33995;48.202;16.260;2023-11-19T00:00:09;1.80;99.90
48206;DHT22;33995;48.202;16.260;2023-11-19T00:02:40;1.90;99.90
48206;DHT22;33995;48.202;16.260;2023-11-19T00:05:09;1.90;99.90
48206;DHT22;33995;48.202;16.260;2023-11-19T00:07:36;1.90;99.90
48206;DHT22;33995;48.202;16.260;2023-11-19T00:10:04;1.90;99.90
48206;DHT22;33995;48.202;16.260;2023-11-19T00:12:33;2.00;99.90
48206;DHT22;33995;48.202;16.260;2023-11-19T00:15:01;1.90;99.90
48206;DHT22;33995;48.202;16.260;2023-11-19T00:17:28;1.70;99.90
48206;DHT22;33995;48.202;16.260;2023-11-19T00:19:55;1.90;99.90
48206;DHT22;33995;48.202;16.260;2023-11-19T00:22:22;1.90;99.90
48206;DHT22;33995;48.202;16.260;2023-11-19T00:24:49;1.90;99.90
48206;DHT22;33995;48.202;16.260;2023-11-19T00:27:16;1.90;99.90
48206;DHT22;33995;48.202;16.260;2023-11-19T00:29:44;2.00;99.90
48206;DHT22;33995;48.202;16.260;2023-11-19T00:32:11;2.00;99.90
48206;DHT22;33995;48.202;16.260;2023-11-19T00:34:39;2.00;99.90
48206;DHT22;33995;48.202;16.260;2023-11-19T00:37:06;2.10;99.90
48206;DHT22;33995;48.202;16.260;2023-11-19T00:39:33;2.10;99.90
48206;DHT22;33995;48.202;16.260;2023-11-19T00:42:00;2.10;99.90
48206;DHT22;33995;48.202;16.260;2023-11-19T00:44:27;2.10;99.90
48206;DHT22;33995;48.202;16.260;2023-11-19T00:46:54;2.00;99.90
48206;DHT22;33995;48.202;16.260;2023-11-19T00:49:21;1.90;99.90
48206;DHT22;33995;48.202;16.260;2023-11-19T00:51:48;1.90;99.90
48206;DHT22;33995;48.202;16.260;2023-11-19T00:54:16;2.00;99.90
48206;DHT22;33995;48.202;16.260;2023-11-19T00:56:43;2.10;99.90
48206;DHT22;33995;48.202;16.260;2023-11-19T00:59:11;2.10;99.90
48206;DHT22;33995;48.202;16.260;2023-11-19T01:01:38;2.10;99.90
48206;DHT22;33995;48.202;16.260;2023-11-19T01:04:08;2.10;99.90
48206;DHT22;33995;48.202;16.260;2023-11-19T01:06:36;2.20;99.90
48206;DHT22;33995;48.202;16.260;2023-11-19T01:09:14;2.30;99.90
48206;DHT22;33995;48.202;16.260;2023-11-19T01:11:41;2.30;99.90
48206;DHT22;33995;48.202;16.260;2023-11-19T01:14:08;2.30;99.90
48206;DHT22;33995;48.202;16.260;2023-11-19T01:16:35;2.20;99.90
48206;DHT22;33995;48.202;16.260;2023-11-19T01:19:03;2.30;99.90
48206;DHT22;33995;48.202;16.260;2023-11-19T01:21:43;2.30;99.90
48206;DHT22;33995;48.202;16.260;2023-11-19T01:24:10;2.40;99.90
48206;DHT22;33995;48.202;16.260;2023-11-19T01:26:39;2.40;99.90
48206;DHT22;33995;48.202;16.260;2023-11-19T01:29:15;2.50;99.90
48206;DHT22;33995;48.202;16.260;2023-11-19T01:31:43;2.50;99.90
48206;DHT22;33995;48.202;16.260;2023-11-19T01:34:12;2.50;99.90
48206;DHT22;33995;48.202;16.260;2023-11-19T01:36:39;2.50;99.90
48206;DHT22;33995;48.202;16.260;2023-11-19T01:39:06;2.40;99.90
48206;DHT22;33995;48.202;16.260;2023-11-19T01:41:37;2.40;99.90
48206;DHT22;33995;48.202;16.260;2023-11-19T01:44:06;2.50;99.90
48206;DHT22;33995;48.202;16.260;2023-11-19T01:46:34;2.50;99.90
48206;DHT22;33995;48.202;16.260;2023-11-19T01:49:02;2.50;99.90
48206;DHT22;33995;48.202;16.260;2023-11-19T01:51:30;2.50;99.90
48206;DHT22;33995;48.202;16.260;2023-11-19T01:53:58;2.30;99.90
48206;DHT22;33995;48.202;16.260;2023-11-19T01:56:25;2.30;99.90
48206;DHT22;33995;48.202;16.260;2023-11-19T01:58:54;2.40;99.90
48206;DHT22;33995;48.202;16.260;2023-11-19T02:01:23;2.30;99.90
48206;DHT22;33995;48.202;16.260;2023-11-19T02:03:51;2.40;99.90
48206;DHT22;33995;48.202;16.260;2023-11-19T02:06:19;2.50;99.90
48206;DHT22;33995;48.202;16.260;2023-11-19T02:08:46;2.50;99.90
48206;DHT22;33995;48.202;16.260;2023-11-19T02:11:13;2.50;99.90
48206;DHT22;33995;48.202;16.260;2023-11-19T02:13:40;2.40;99.90
48206;DHT22;33995;48.202;16.260;2023-11-19T02:16:08;2.50;99.90
48206;DHT22;33995;48.202;16.260;2023-11-19T02:18:38;2.60;99.90
48206;DHT22;33995;48.202;16.260;2023-11-19T02:21:06;2.60;99.90
48206;DHT22;33995;48.202;16.260;2023-11-19T02:23:34;2.60;99.90
48206;DHT22;33995;48.202;16.260;2023-11-19T02:28:46;2.70;99.90
48206;DHT22;33995;48.202;16.260;2023-11-19T02:31:13;2.80;99.90
48206;DHT22;33995;48.202;16.260;2023-11-19T02:33:40;2.80;99.90
48206;DHT22;33995;48.202;16.260;2023-11-19T02:36:08;2.80;99.90
48206;DHT22;33995;48.202;16.260;2023-11-19T02:38:38;2.80;99.90
48206;DHT22;33995;48.202;16.260;2023-11-19T02:41:06;2.90;99.90
48206;DHT22;33995;48.202;16.260;2023-11-19T02:43:34;2.90;99.90
48206;DHT22;33995;48.202;16.260;2023-11-19T02:46:04;2.90;99.90
48206;DHT22;33995;48.202;16.260;2023-11-19T02:48:38;2.90;99.90
48206;DHT22;33995;48.202;16.260;2023-11-19T02:51:06;2.90;99.90
48206;DHT22;33995;48.202;16.260;2023-11-19T02:53:37;2.90;99.90
48206;DHT22;33995;48.202;16.260;2023-11-19T02:56:05;3.00;99.90
48206;DHT22;33995;48.202;16.260;2023-11-19T02:58:38;3.00;99.90
48206;DHT22;33995;48.202;16.260;2023-11-19T03:04:49;3.00;99.90
48206;DHT22;33995;48.202;16.260;2023-11-19T03:07:20;3.00;99.90
48206;DHT22;33995;48.202;16.260;2023-11-19T03:09:47;2.90;99.90
48206;DHT22;33995;48.202;16.260;2023-11-19T03:12:16;2.90;99.90
48206;DHT22;33995;48.202;16.260;2023-11-19T03:14:43;2.80;99.90
48206;DHT22;33995;48.202;16.260;2023-11-19T03:17:11;2.90;99.90
48206;DHT22;33995;48.202;16.260;2023-11-19T03:19:38;2.90;99.90
48206;DHT22;33995;48.202;16.260;2023-11-19T03:22:05;2.90;99.90
48206;DHT22;33995;48.202;16.260;2023-11-19T03:24:32;2.90;99.90
48206;DHT22;33995;48.202;16.260;2023-11-19T03:26:59;3.00;99.90
48206;DHT22;33995;48.202;16.260;2023-11-19T03:29:26;2.90;99.90
48206;DHT22;33995;48.202;16.260;2023-11-19T03:31:55;3.00;99.90
48206;DHT22;33995;48.202;16.260;2023-11-19T03:34:23;3.00;99.90
48206;DHT22;33995;48.202;16.260;2023-11-19T03:36:50;3.00;99.90
48206;DHT22;33995;48.202;16.260;2023-11-19T03:39:17;3.00;99.90
48206;DHT22;33995;48.202;16.260;2023-11-19T03:41:47;3.00;99.90
48206;DHT22;33995;48.202;16.260;2023-11-19T03:44:14;3.00;99.90
48206;DHT22;33995;48.202;16.260;2023-11-19T03:46:41;3.10;99.90
48206;DHT22;33995;48.202;16.260;2023-11-19T03:49:08;3.10;99.90
48206;DHT22;33995;48.202;16.260;2023-11-19T03:51:35;3.10;99.90
48206;DHT22;33995;48.202;16.260;2023-11-19T03:54:02;3.10;99.90
48206;DHT22;33995;48.202;16.260;2023-11-19T03:56:29;3.10;99.90
48206;DHT22;33995;48.202;16.260;2023-11-19T03:58:57;3.10;99.90
48206;DHT22;33995;48.202;16.260;2023-11-19T04:01:24;3.20;99.90
48206;DHT22;33995;48.202;16.260;2023-11-19T04:03:51;3.20;99.90
48206;DHT22;33995;48.202;16.260;2023-11-19T04:06:18;3.10;99.90
48206;DHT22;33995;48.202;16.260;2023-11-19T04:08:45;3.20;99.90
48206;DHT22;33995;48.202;16.260;2023-11-19T04:11:12;3.20;99.90
48206;DHT22;33995;48.202;16.260;2023-11-19T04:13:39;3.20;99.90
48206;DHT22;33995;48.202;16.260;2023-11-19T04:16:07;3.20;99.90
48206;DHT22;33995;48.202;16.260;2023-11-19T04:18:34;3.20;99.90
48206;DHT22;33995;48.202;16.260;2023-11-19T04:21:07;3.20;99.90
48206;DHT22;33995;48.202;16.260;2023-11-19T04:23:34;3.20;99.90
48206;DHT22;33995;48.202;16.260;2023-11-19T04:26:04;3.30;99.90
48206;DHT22;33995;48.202;16.260;2023-11-19T04:28:34;3.30;99.90
48206;DHT22;33995;48.202;16.260;2023-11-19T04:31:01;3.30;99.90
48206;DHT22;33995;48.202;16.260;2023-11-19T04:33:30;3.20;99.90
48206;DHT22;33995;48.202;16.260;2023-11-19T04:35:57;3.30;99.90
48206;DHT22;33995;48.202;16.260;2023-11-19T04:38:24;3.30;99.90
48206;DHT22;33995;48.202;16.260;2023-11-19T04:40:53;3.30;99.90
48206;DHT22;33995;48.202;16.260;2023-11-19T04:43:20;3.30;99.90
48206;DHT22;33995;48.202;16.260;2023-11-19T04:45:47;3.30;99.90
48206;DHT22;33995;48.202;16.260;2023-11-19T04:48:14;3.30;99.90
48206;DHT22;33995;48.202;16.260;2023-11-19T04:50:41;3.30;99.90
48206;DHT22;33995;48.202;16.260;2023-11-19T04:53:08;3.30;99.90
48206;DHT22;33995;48.202;16.260;2023-11-19T04:55:35;3.30;99.90
48206;DHT22;33995;48.202;16.260;2023-11-19T04:58:02;3.30;99.90
48206;DHT22;33995;48.202;16.260;2023-11-19T05:00:31;3.30;99.90
48206;DHT22;33995;48.202;16.260;2023-11-19T05:02:58;3.30;99.90
48206;DHT22;33995;48.202;16.260;2023-11-19T05:05:26;3.30;99.90
48206;DHT22;33995;48.202;16.260;2023-11-19T05:07:53;3.30;99.90
48206;DHT22;33995;48.202;16.260;2023-11-19T05:10:21;3.30;99.90
48206;DHT22;33995;48.202;16.260;2023-11-19T05:12:48;3.20;99.90
48206;DHT22;33995;48.202;16.260;2023-11-19T05:15:17;3.30;99.90
48206;DHT22;33995;48.202;16.260;2023-11-19T05:17:44;3.30;99.90
48206;DHT22;33995;48.202;16.260;2023-11-19T05:20:12;3.30;99.90
48206;DHT22;33995;48.202;16.260;2023-11-19T05:22:42;3.30;99.90
48206;DHT22;33995;48.202;16.260;2023-11-19T05:25:09;3.20;99.90
48206;DHT22;33995;48.202;16.260;2023-11-19T05:27:38;3.30;99.90
48206;DHT22;33995;48.202;16.260;2023-11-19T05:30:06;3.30;99.90
48206;DHT22;33995;48.202;16.260;2023-11-19T05:32:38;3.30;99.90
48206;DHT22;33995;48.202;16.260;2023-11-19T05:35:05;3.30;99.90
48206;DHT22;33995;48.202;16.260;2023-11-19T05:37:32;3.30;99.90
48206;DHT22;33995;48.202;16.260;2023-11-19T05:40:01;3.30;99.90
48206;DHT22;33995;48.202;16.260;2023-11-19T05:42:30;3.30;99.90
48206;DHT22;33995;48.202;16.260;2023-11-19T05:44:57;3.40;99.90
48206;DHT22;33995;48.202;16.260;2023-11-19T05:47:24;3.40;99.90
48206;DHT22;33995;48.202;16.260;2023-11-19T05:49:51;3.40;99.90
48206;DHT22;33995;48.202;16.260;2023-11-19T05:52:18;3.40;99.90
48206;DHT22;33995;48.202;16.260;2023-11-19T05:54:45;3.40;99.90
48206;DHT22;33995;48.202;16.260;2023-11-19T05:57:14;3.40;99.90
48206;DHT22;33995;48.202;16.260;2023-11-19T05:59:41;3.40;99.90
48206;DHT22;33995;48.202;16.260;2023-11-19T06:02:08;3.40;99.90
48206;DHT22;33995;48.202;16.260;2023-11-19T06:04:35;3.40;99.90
48206;DHT22;33995;48.202;16.260;2023-11-19T06:07:02;3.40;99.90
48206;DHT22;33995;48.202;16.260;2023-11-19T06:09:29;3.30;99.90
48206;DHT22;33995;48.202;16.260;2023-11-19T06:11:56;3.40;99.90
48206;DHT22;33995;48.202;16.260;2023-11-19T06:14:24;3.40;99.90
48206;DHT22;33995;48.202;16.260;2023-11-19T06:16:51;3.30;99.90
48206;DHT22;33995;48.202;16.260;2023-11-19T06:19:18;3.30;99.90
48206;DHT22;33995;48.202;16.260;2023-11-19T06:21:45;3.40;99.90
48206;DHT22;33995;48.202;16.260;2023-11-19T06:24:12;3.30;99.90
48206;DHT22;33995;48.202;16.260;2023-11-19T06:26:39;3.30;99.90
48206;DHT22;33995;48.202;16.260;2023-11-19T06:29:06;3.30;99.90
48206;DHT22;33995;48.202;16.260;2023-11-19T06:31:33;3.30;99.90
48206;DHT22;33995;48.202;16.260;2023-11-19T06:34:00;3.40;99.90
48206;DHT22;33995;48.202;16.260;2023-11-19T06:36:27;3.30;99.90
48206;DHT22;33995;48.202;16.260;2023-11-19T06:38:55;3.40;99.90
48206;DHT22;33995;48.202;16.260;2023-11-19T06:41:22;3.40;99.90
48206;DHT22;33995;48.202;16.260;2023-11-19T06:43:49;3.50;99.90
48206;DHT22;33995;48.202;16.260;2023-11-19T06:46:16;3.60;99.90
48206;DHT22;33995;48.202;16.260;2023-11-19T06:48:44;3.60;99.90
48206;DHT22;33995;48.202;16.260;2023-11-19T06:51:12;3.50;99.90
48206;DHT22;33995;48.202;16.260;2023-11-19T06:53:39;3.50;99.90
48206;DHT22;33995;48.202;16.260;2023-11-19T06:56:19;3.50;99.90
48206;DHT22;33995;48.202;16.260;2023-11-19T06:58:50;3.50;99.90
48206;DHT22;33995;48.202;16.260;2023-11-19T07:01:18;3.50;99.90
48206;DHT22;33995;48.202;16.260;2023-11-19T07:03:46;3.50;99.90
48206;DHT22;33995;48.202;16.260;2023-11-19T07:06:15;3.50;99.90
48206;DHT22;33995;48.202;16.260;2023-11-19T07:08:42;3.40;99.90
48206;DHT22;33995;48.202;16.260;2023-11-19T07:11:12;3.50;99.90
48206;DHT22;33995;48.202;16.260;2023-11-19T07:13:40;3.60;99.90
48206;DHT22;33995;48.202;16.260;2023-11-19T07:16:08;3.50;99.90
48206;DHT22;33995;48.202;16.260;2023-11-19T07:18:36;3.50;99.90
48206;DHT22;33995;48.202;16.260;2023-11-19T07:21:04;3.50;99.90
48206;DHT22;33995;48.202;16.260;2023-11-19T07:23:31;3.50;99.90
48206;DHT22;33995;48.202;16.260;2023-11-19T07:26:01;3.50;99.90
48206;DHT22;33995;48.202;16.260;2023-11-19T07:28:28;3.50;99.90
48206;DHT22;33995;48.202;16.260;2023-11-19T07:30:55;3.60;99.90
48206;DHT22;33995;48.202;16.260;2023-11-19T07:33:25;3.60;99.90
48206;DHT22;33995;48.202;16.260;2023-11-19T07:35:52;3.60;99.90
48206;DHT22;33995;48.202;16.260;2023-11-19T07:38:19;3.60;99.90
48206;DHT22;33995;48.202;16.260;2023-11-19T07:40:46;3.50;99.90
48206;DHT22;33995;48.202;16.260;2023-11-19T07:43:17;3.60;99.90
48206;DHT22;33995;48.202;16.260;2023-11-19T07:45:44;3.70;99.90
48206;DHT22;33995;48.202;16.260;2023-11-19T07:48:13;3.70;99.90
48206;DHT22;33995;48.202;16.260;2023-11-19T07:50:40;3.70;99.90
48206;DHT22;33995;48.202;16.260;2023-11-19T07:53:09;3.70;99.90
48206;DHT22;33995;48.202;16.260;2023-11-19T07:55:37;3.70;99.90
48206;DHT22;33995;48.202;16.260;2023-11-19T07:58:09;3.70;99.90
48206;DHT22;33995;48.202;16.260;2023-11-19T08:00:36;3.70;99.90
48206;DHT22;33995;48.202;16.260;2023-11-19T08:03:04;3.80;99.90
48206;DHT22;33995;48.202;16.260;2023-11-19T08:05:31;3.80;99.90
48206;DHT22;33995;48.202;16.260;2023-11-19T08:07:58;3.80;99.90
48206;DHT22;33995;48.202;16.260;2023-11-19T08:10:25;3.80;99.90
48206;DHT22;33995;48.202;16.260;2023-11-19T08:12:53;3.90;99.90
48206;DHT22;33995;48.202;16.260;2023-11-19T08:15:20;4.00;99.90
48206;DHT22;33995;48.202;16.260;2023-11-19T08:17:50;4.00;99.90
48206;DHT22;33995;48.202;16.260;2023-11-19T08:20:18;4.10;99.90
48206;DHT22;33995;48.202;16.260;2023-11-19T08:22:45;4.00;99.90
48206;DHT22;33995;48.202;16.260;2023-11-19T08:25:12;4.10;99.90
48206;DHT22;33995;48.202;16.260;2023-11-19T08:27:39;4.10;99.90
48206;DHT22;33995;48.202;16.260;2023-11-19T08:30:07;4.10;99.90
48206;DHT22;33995;48.202;16.260;2023-11-19T08:32:37;4.10;99.90
48206;DHT22;33995;48.202;16.260;2023-11-19T08:35:04;4.10;99.90
48206;DHT22;33995;48.202;16.260;2023-11-19T08:37:31;4.10;99.90
48206;DHT22;33995;48.202;16.260;2023-11-19T08:39:58;4.10;99.90
48206;DHT22;33995;48.202;16.260;2023-11-19T08:42:25;4.20;99.90
48206;DHT22;33995;48.202;16.260;2023-11-19T08:44:52;4.20;99.90
48206;DHT22;33995;48.202;16.260;2023-11-19T08:47:21;4.30;99.90
48206;DHT22;33995;48.202;16.260;2023-11-19T08:49:52;4.30;99.90
48206;DHT22;33995;48.202;16.260;2023-11-19T08:52:23;4.30;99.90
48206;DHT22;33995;48.202;16.260;2023-11-19T08:54:50;4.30;99.90
48206;DHT22;33995;48.202;16.260;2023-11-19T08:57:17;4.20;99.90
48206;DHT22;33995;48.202;16.260;2023-11-19T08:59:44;4.30;99.90
48206;DHT22;33995;48.202;16.260;2023-11-19T09:02:13;4.30;99.90
48206;DHT22;33995;48.202;16.260;2023-11-19T09:04:40;4.40;99.90
48206;DHT22;33995;48.202;16.260;2023-11-19T09:07:08;4.50;99.90
48206;DHT22;33995;48.202;16.260;2023-11-19T09:09:36;4.50;99.90
48206;DHT22;33995;48.202;16.260;2023-11-19T09:12:03;4.50;99.90
48206;DHT22;33995;48.202;16.260;2023-11-19T09:14:31;4.50;99.90
48206;DHT22;33995;48.202;16.260;2023-11-19T09:16:58;4.60;99.90
48206;DHT22;33995;48.202;16.260;2023-11-19T09:19:26;4.50;99.90
48206;DHT22;33995;48.202;16.260;2023-11-19T09:21:53;4.60;99.90
48206;DHT22;33995;48.202;16.260;2023-11-19T09:24:20;4.60;99.90
48206;DHT22;33995;48.202;16.260;2023-11-19T09:26:47;4.60;99.90
48206;DHT22;33995;48.202;16.260;2023-11-19T09:29:15;4.60;99.90
48206;DHT22;33995;48.202;16.260;2023-11-19T09:31:42;4.60;99.90
48206;DHT22;33995;48.202;16.260;2023-11-19T09:34:09;4.70;99.90
48206;DHT22;33995;48.202;16.260;2023-11-19T09:36:36;4.80;99.90
48206;DHT22;33995;48.202;16.260;2023-11-19T09:39:03;4.80;99.90
48206;DHT22;33995;48.202;16.260;2023-11-19T09:41:32;4.80;99.90
48206;DHT22;33995;48.202;16.260;2023-11-19T09:43:59;4.80;99.90
48206;DHT22;33995;48.202;16.260;2023-11-19T09:46:26;4.70;99.90
48206;DHT22;33995;48.202;16.260;2023-11-19T09:48:56;4.80;99.90
48206;DHT22;33995;48.202;16.260;2023-11-19T09:51:24;4.90;99.90
48206;DHT22;33995;48.202;16.260;2023-11-19T09:53:51;4.90;99.90
48206;DHT22;33995;48.202;16.260;2023-11-19T09:56:19;4.90;99.90
48206;DHT22;33995;48.202;16.260;2023-11-19T09:58:46;5.00;99.90
48206;DHT22;33995;48.202;16.260;2023-11-19T10:01:14;5.00;99.90
48206;DHT22;33995;48.202;16.260;2023-11-19T10:03:47;5.10;99.90
48206;DHT22;33995;48.202;16.260;2023-11-19T10:06:15;5.10;99.90
48206;DHT22;33995;48.202;16.260;2023-11-19T10:08:43;5.10;99.90
48206;DHT22;33995;48.202;16.260;2023-11-19T10:11:10;5.20;99.90
48206;DHT22;33995;48.202;16.260;2023-11-19T10:13:39;5.20;99.90
48206;DHT22;33995;48.202;16.260;2023-11-19T10:16:09;5.30;99.90
48206;DHT22;33995;48.202;16.260;2023-11-19T10:18:46;5.20;99.90
48206;DHT22;33995;48.202;16.260;2023-11-19T10:21:13;5.20;99.90
48206;DHT22;33995;48.202;16.260;2023-11-19T10:23:54;5.30;99.90
48206;DHT22;33995;48.202;16.260;2023-11-19T10:26:21;5.30;99.90
48206;DHT22;33995;48.202;16.260;2023-11-19T10:28:49;5.20;99.90
48206;DHT22;33995;48.202;16.260;2023-11-19T10:31:18;5.20;99.90
48206;DHT22;33995;48.202;16.260;2023-11-19T10:33:45;5.30;99.90
48206;DHT22;33995;48.202;16.260;2023-11-19T10:36:14;5.30;99.90
48206;DHT22;33995;48.202;16.260;2023-11-19T10:38:54;5.30;99.90
48206;DHT22;33995;48.202;16.260;2023-11-19T10:41:32;5.30;99.90
48206;DHT22;33995;48.202;16.260;2023-11-19T10:44:00;5.50;99.90
48206;DHT22;33995;48.202;16.260;2023-11-19T10:46:42;5.60;99.90
48206;DHT22;33995;48.202;16.260;2023-11-19T10:49:10;5.60;99.90
48206;DHT22;33995;48.202;16.260;2023-11-19T10:51:44;5.70;99.90
48206;DHT22;33995;48.202;16.260;2023-11-19T10:54:15;5.70;99.90
48206;DHT22;33995;48.202;16.260;2023-11-19T10:56:49;5.60;99.90
48206;DHT22;33995;48.202;16.260;2023-11-19T10:59:19;5.50;99.90
48206;DHT22;33995;48.202;16.260;2023-11-19T11:01:53;5.50;99.90
48206;DHT22;33995;48.202;16.260;2023-11-19T11:04:25;5.60;99.90
48206;DHT22;33995;48.202;16.260;2023-11-19T11:06:55;5.60;99.90
48206;DHT22;33995;48.202;16.260;2023-11-19T11:09:26;5.70;99.90
48206;DHT22;33995;48.202;16.260;2023-11-19T11:11:55;5.80;99.90
48206;DHT22;33995;48.202;16.260;2023-11-19T11:14:24;5.80;99.90
48206;DHT22;33995;48.202;16.260;2023-11-19T11:16:53;5.90;99.90
48206;DHT22;33995;48.202;16.260;2023-11-19T11:19:20;5.90;99.90
48206;DHT22;33995;48.202;16.260;2023-11-19T11:21:52;6.00;99.90
48206;DHT22;33995;48.202;16.260;2023-11-19T11:28:08;6.00;99.90
48206;DHT22;33995;48.202;16.260;2023-11-19T11:31:26;5.90;99.90
48206;DHT22;33995;48.202;16.260;2023-11-19T11:36:21;5.70;99.90
48206;DHT22;33995;48.202;16.260;2023-11-19T11:38:50;5.80;99.90
48206;DHT22;33995;48.202;16.260;2023-11-19T11:41:22;5.80;99.90
48206;DHT22;33995;48.202;16.260;2023-11-19T11:43:54;5.70;99.90
48206;DHT22;33995;48.202;16.260;2023-11-19T11:49:03;5.80;99.90
48206;DHT22;33995;48.202;16.260;2023-11-19T11:51:59;5.80;99.90
48206;DHT22;33995;48.202;16.260;2023-11-19T11:54:28;5.80;99.90
48206;DHT22;33995;48.202;16.260;2023-11-19T11:57:13;5.80;99.90
48206;DHT22;33995;48.202;16.260;2023-11-19T12:02:09;5.80;99.90
48206;DHT22;33995;48.202;16.260;2023-11-19T12:04:37;5.80;99.90
48206;DHT22;33995;48.202;16.260;2023-11-19T12:07:11;5.90;99.90
48206;DHT22;33995;48.202;16.260;2023-11-19T12:09:42;5.90;99.90
48206;DHT22;33995;48.202;16.260;2023-11-19T12:12:18;5.90;99.90
48206;DHT22;33995;48.202;16.260;2023-11-19T12:20:06;5.90;99.90
48206;DHT22;33995;48.202;16.260;2023-11-19T12:22:39;5.90;99.90
48206;DHT22;33995;48.202;16.260;2023-11-19T12:25:08;5.90;99.90
48206;DHT22;33995;48.202;16.260;2023-11-19T12:27:49;6.00;99.90
48206;DHT22;33995;48.202;16.260;2023-11-19T12:30:26;6.00;99.90
48206;DHT22;33995;48.202;16.260;2023-11-19T12:32:53;6.00;99.90
48206;DHT22;33995;48.202;16.260;2023-11-19T12:35:22;6.10;99.90
48206;DHT22;33995;48.202;16.260;2023-11-19T12:37:54;5.90;99.90
48206;DHT22;33995;48.202;16.260;2023-11-19T12:40:22;5.90;99.90
48206;DHT22;33995;48.202;16.260;2023-11-19T12:42:53;6.00;99.90
48206;DHT22;33995;48.202;16.260;2023-11-19T12:45:20;6.00;99.90
48206;DHT22;33995;48.202;16.260;2023-11-19T12:47:50;5.90;99.90
48206;DHT22;33995;48.202;16.260;2023-11-19T12:50:58;6.00;99.90
48206;DHT22;33995;48.202;16.260;2023-11-19T12:53:29;6.10;99.90
48206;DHT22;33995;48.202;16.260;2023-11-19T12:56:13;6.20;99.90
48206;DHT22;33995;48.202;16.260;2023-11-19T12:58:41;6.10;99.90
48206;DHT22;33995;48.202;16.260;2023-11-19T13:01:09;6.20;99.90
48206;DHT22;33995;48.202;16.260;2023-11-19T13:03:39;6.20;99.90
48206;DHT22;33995;48.202;16.260;2023-11-19T13:06:08;6.30;99.90
48206;DHT22;33995;48.202;16.260;2023-11-19T13:08:47;6.30;99.90
48206;DHT22;33995;48.202;16.260;2023-11-19T13:11:30;6.30;99.90
48206;DHT22;33995;48.202;16.260;2023-11-19T13:14:02;6.30;99.90
48206;DHT22;33995;48.202;16.260;2023-11-19T13:16:31;6.30;99.90
48206;DHT22;33995;48.202;16.260;2023-11-19T13:18:59;6.30;99.90
48206;DHT22;33995;48.202;16.260;2023-11-19T13:21:27;6.40;99.90
48206;DHT22;33995;48.202;16.260;2023-11-19T13:23:55;6.50;99.90
48206;DHT22;33995;48.202;16.260;2023-11-19T13:26:22;6.40;99.90
48206;DHT22;33995;48.202;16.260;2023-11-19T13:28:49;6.40;99.90
48206;DHT22;33995;48.202;16.260;2023-11-19T13:31:16;6.40;99.90
48206;DHT22;33995;48.202;16.260;2023-11-19T13:33:43;6.40;99.90
48206;DHT22;33995;48.202;16.260;2023-11-19T13:36:10;6.40;99.90
48206;DHT22;33995;48.202;16.260;2023-11-19T13:38:42;6.40;99.90
48206;DHT22;33995;48.202;16.260;2023-11-19T13:41:11;6.50;99.90
48206;DHT22;33995;48.202;16.260;2023-11-19T13:43:39;6.60;99.90
48206;DHT22;33995;48.202;16.260;2023-11-19T13:46:07;6.90;99.90
48206;DHT22;33995;48.202;16.260;2023-11-19T13:48:37;7.70;99.90
48206;DHT22;33995;48.202;16.260;2023-11-19T13:51:05;8.30;99.90
48206;DHT22;33995;48.202;16.260;2023-11-19T13:53:32;8.10;99.90
48206;DHT22;33995;48.202;16.260;2023-11-19T13:56:17;7.60;99.90
48206;DHT22;33995;48.202;16.260;2023-11-19T13:58:44;7.50;99.90
48206;DHT22;33995;48.202;16.260;2023-11-19T14:01:11;7.30;99.90
48206;DHT22;33995;48.202;16.260;2023-11-19T14:03:40;7.30;99.90
48206;DHT22;33995;48.202;16.260;2023-11-19T14:06:07;7.30;99.90
48206;DHT22;33995;48.202;16.260;2023-11-19T14:08:35;7.20;99.90
48206;DHT22;33995;48.202;16.260;2023-11-19T14:11:02;7.10;99.90
48206;DHT22;33995;48.202;16.260;2023-11-19T14:13:29;7.10;99.90
48206;DHT22;33995;48.202;16.260;2023-11-19T14:15:56;7.00;99.90
48206;DHT22;33995;48.202;16.260;2023-11-19T14:18:23;7.00;99.90
48206;DHT22;33995;48.202;16.260;2023-11-19T14:20:50;7.00;99.90
48206;DHT22;33995;48.202;16.260;2023-11-19T14:23:17;7.10;99.90
48206;DHT22;33995;48.202;16.260;2023-11-19T14:25:44;7.00;99.90
48206;DHT22;33995;48.202;16.260;2023-11-19T14:28:11;7.00;99.90
48206;DHT22;33995;48.202;16.260;2023-11-19T14:30:38;7.00;99.90
48206;DHT22;33995;48.202;16.260;2023-11-19T14:33:05;7.00;99.90
48206;DHT22;33995;48.202;16.260;2023-11-19T14:35:32;6.90;99.90
48206;DHT22;33995;48.202;16.260;2023-11-19T14:38:00;6.90;99.90
48206;DHT22;33995;48.202;16.260;2023-11-19T14:40:31;6.90;99.90
48206;DHT22;33995;48.202;16.260;2023-11-19T14:43:01;6.90;99.90
48206;DHT22;33995;48.202;16.260;2023-11-19T14:45:29;7.00;99.90
48206;DHT22;33995;48.202;16.260;2023-11-19T14:48:05;7.00;99.90
48206;DHT22;33995;48.202;16.260;2023-11-19T14:50:32;7.00;99.90
48206;DHT22;33995;48.202;16.260;2023-11-19T14:52:59;7.00;99.90
48206;DHT22;33995;48.202;16.260;2023-11-19T14:55:27;7.00;99.90
48206;DHT22;33995;48.202;16.260;2023-11-19T14:57:53;7.00;99.90
48206;DHT22;33995;48.202;16.260;2023-11-19T15:00:33;7.00;99.90
48206;DHT22;33995;48.202;16.260;2023-11-19T15:03:00;6.90;99.90
48206;DHT22;33995;48.202;16.260;2023-11-19T15:05:28;7.00;99.90
48206;DHT22;33995;48.202;16.260;2023-11-19T15:07:56;6.90;99.90
48206;DHT22;33995;48.202;16.260;2023-11-19T15:10:23;6.90;99.90
48206;DHT22;33995;48.202;16.260;2023-11-19T15:12:52;6.90;99.90
48206;DHT22;33995;48.202;16.260;2023-11-19T15:15:20;6.90;99.90
48206;DHT22;33995;48.202;16.260;2023-11-19T15:17:50;6.90;99.90
48206;DHT22;33995;48.202;16.260;2023-11-19T15:20:17;6.80;99.90
48206;DHT22;33995;48.202;16.260;2023-11-19T15:22:46;6.80;99.90
48206;DHT22;33995;48.202;16.260;2023-11-19T15:25:13;6.70;99.90
48206;DHT22;33995;48.202;16.260;2023-11-19T15:27:40;6.80;99.90
48206;DHT22;33995;48.202;16.260;2023-11-19T15:30:07;6.80;99.90
48206;DHT22;33995;48.202;16.260;2023-11-19T15:32:37;6.80;99.90
48206;DHT22;33995;48.202;16.260;2023-11-19T15:35:06;6.70;99.90
48206;DHT22;33995;48.202;16.260;2023-11-19T15:37:34;6.70;99.90
48206;DHT22;33995;48.202;16.260;2023-11-19T15:40:02;6.60;99.90
48206;DHT22;33995;48.202;16.260;2023-11-19T15:42:35;6.60;99.90
48206;DHT22;33995;48.202;16.260;2023-11-19T15:45:02;6.60;99.90
48206;DHT22;33995;48.202;16.260;2023-11-19T15:47:33;6.50;99.90
48206;DHT22;33995;48.202;16.260;2023-11-19T15:50:04;6.40;99.90
48206;DHT22;33995;48.202;16.260;2023-11-19T16:06:08;6.20;99.90
48206;DHT22;33995;48.202;16.260;2023-11-19T16:09:01;6.10;99.90
48206;DHT22;33995;48.202;16.260;2023-11-19T16:45:32;5.70;99.90
48206;DHT22;33995;48.202;16.260;2023-11-19T16:48:23;5.80;99.90
48206;DHT22;33995;48.202;16.260;2023-11-19T16:51:12;5.90;99.90